Time;durP1;ratioP1;P1;durP2;ratioP2;P2;SDS_P1;SDS_P2;PMS_P1;PMS_P2;Temp;Humidity;BMP_temperature;BMP_pressure;BME280_temperature;BME280_humidity;BME280_pressure;Samples;Min_cycle;Max_cycle;Signal;HPM_P1;HPM_P2
2023/12/26 00:49:43;;;;;;;5.05;2.40;;;;;;;7.26;100.00;100988.19;6197227;23;20048;-92
2023/12/26 00:52:12;;;;;;;1.48;1.13;;;;;;;7.31;100.00;100991.84;6217735;23;20036;-91
2023/12/26 00:54:41;;;;;;;1.75;1.38;;;;;;;7.34;100.00;101002.28;6221816;23;20013;-91
2023/12/26 00:57:15;;;;;;;2.13;1.35;;;;;;;7.39;100.00;101006.75;6221430;23;20020;-89
2023/12/26 00:59:45;;;;;;;1.83;1.10;;;;;;;7.44;100.00;101013.00;6220267;23;20059;-91
2023/12/26 01:02:21;;;;;;;4.75;1.15;;;;;;;7.50;100.00;101005.56;6216329;23;20024;-93
2023/12/26 01:05:15;;;;;;;3.67;1.73;;;;;;;7.52;100.00;101003.94;6222560;23;20026;-90
2023/12/26 01:07:44;;;;;;;3.80;1.67;;;;;;;7.54;100.00;101010.91;6223654;23;20035;-89
2023/12/26 01:10:16;;;;;;;1.42;1.05;;;;;;;7.55;100.00;101017.81;6224704;23;20055;-91
2023/12/26 01:12:47;;;;;;;1.58;1.05;;;;;;;7.54;100.00;101028.94;6222718;23;20020;-90
2023/12/26 01:33:49;;;;;;;1.92;1.38;;;;;;;7.55;100.00;101019.53;6230187;23;20499;-93
2023/12/26 01:36:18;;;;;;;3.35;1.65;;;;;;;7.59;100.00;101020.56;6223927;23;20024;-93
2023/12/26 01:38:48;;;;;;;2.22;1.30;;;;;;;7.60;100.00;101006.84;6219460;23;20098;-91
2023/12/26 01:41:23;;;;;;;1.48;1.23;;;;;;;7.64;100.00;101004.47;6222735;23;20016;-95
2023/12/26 01:51:45;;;;;;;2.15;1.40;;;;;;;7.57;100.00;101020.47;6207315;23;20060;-93
2023/12/26 01:54:15;;;;;;;4.80;1.65;;;;;;;7.56;100.00;101029.03;6223184;23;20070;-93
2023/12/26 01:56:45;;;;;;;2.60;1.50;;;;;;;7.49;100.00;101033.00;6220703;23;20028;-92
2023/12/26 01:59:17;;;;;;;3.38;1.60;;;;;;;7.52;100.00;101047.72;6219076;23;20083;-90
2023/12/26 02:01:46;;;;;;;2.33;1.65;;;;;;;7.52;100.00;101045.13;6216149;23;20032;-94
2023/12/26 02:04:16;;;;;;;1.35;1.02;;;;;;;7.54;100.00;101030.66;6220154;23;20024;-89
2023/12/26 02:06:56;;;;;;;3.67;1.77;;;;;;;7.59;100.00;101036.88;6220864;23;20040;-94
2023/12/26 02:09:30;;;;;;;1.88;1.40;;;;;;;7.57;100.00;101015.31;6223450;23;20017;-88
2023/12/26 02:12:01;;;;;;;2.13;1.55;;;;;;;7.58;100.00;101040.25;6218411;23;20095;-93
2023/12/26 02:14:42;;;;;;;8.80;2.00;;;;;;;7.53;100.00;101013.41;6217535;23;20071;-88
2023/12/26 02:17:14;;;;;;;2.65;2.00;;;;;;;7.50;100.00;101006.44;6221780;23;20021;-92
2023/12/26 02:19:44;;;;;;;3.55;1.85;;;;;;;7.50;100.00;101001.28;6219551;23;20047;-92
2023/12/26 02:22:21;;;;;;;1.95;1.30;;;;;;;7.52;100.00;100994.50;6219868;23;20043;-87
2023/12/26 02:24:53;;;;;;;3.17;1.00;;;;;;;7.43;100.00;100998.38;6214844;23;20104;-88
2023/12/26 02:27:29;;;;;;;2.03;1.17;;;;;;;7.29;100.00;100985.75;6217106;23;20021;-91
2023/12/26 02:32:35;;;;;;;1.27;1.00;;;;;;;7.21;100.00;100963.03;6219943;23;20023;-92
2023/12/26 02:35:05;;;;;;;1.52;1.00;;;;;;;7.20;100.00;100984.44;6220411;23;20472;-89
2023/12/26 02:37:39;;;;;;;1.88;1.20;;;;;;;7.12;100.00;100971.19;6218553;23;20099;-91
2023/12/26 02:40:12;;;;;;;1.20;0.90;;;;;;;7.12;100.00;100978.91;6221299;23;20033;-94
2023/12/26 02:42:41;;;;;;;3.92;1.02;;;;;;;7.10;100.00;100970.22;6219986;23;20020;-90
2023/12/26 02:47:56;;;;;;;1.30;0.85;;;;;;;7.14;100.00;100979.88;6220794;23;20020;-91
2023/12/26 03:00:55;;;;;;;2.38;1.60;;;;;;;7.33;100.00;100982.50;6221106;23;20025;-92
2023/12/26 03:03:25;;;;;;;2.28;1.20;;;;;;;7.37;100.00;100985.22;6222495;23;20024;-93
2023/12/26 03:05:56;;;;;;;2.65;1.25;;;;;;;7.34;100.00;100968.81;6221239;23;20020;-93
2023/12/26 03:08:25;;;;;;;1.67;1.08;;;;;;;7.42;100.00;100979.47;6221724;23;20075;-94
2023/12/26 03:10:54;;;;;;;2.67;1.40;;;;;;;7.43;100.00;100990.66;6220232;23;20033;-91
2023/12/26 03:13:26;;;;;;;11.98;5.20;;;;;;;7.40;100.00;101003.34;6222309;23;20025;-91
2023/12/26 03:16:04;;;;;;;14.48;6.85;;;;;;;7.37;100.00;100996.38;6217729;23;20048;-91
2023/12/26 03:18:33;;;;;;;7.28;2.72;;;;;;;7.40;100.00;100972.47;6223100;23;20096;-94
2023/12/26 03:21:01;;;;;;;5.55;2.78;;;;;;;7.39;100.00;100984.47;6225714;23;20080;-93
2023/12/26 03:23:30;;;;;;;2.22;1.50;;;;;;;7.43;100.00;100973.50;6229819;23;20025;-91
2023/12/26 03:26:04;;;;;;;2.13;1.58;;;;;;;7.40;100.00;100982.75;6223129;23;20020;-90
2023/12/26 03:28:35;;;;;;;5.22;1.70;;;;;;;7.33;100.00;100990.22;6221780;23;20099;-91
2023/12/26 03:31:04;;;;;;;3.85;1.90;;;;;;;7.38;100.00;100979.25;6217647;23;20100;-91
2023/12/26 03:33:33;;;;;;;2.58;1.83;;;;;;;7.39;100.00;101004.19;6217963;23;20079;-91
2023/12/26 03:36:08;;;;;;;2.08;1.45;;;;;;;7.39;100.00;100991.31;6218641;23;20023;-90
2023/12/26 03:38:43;;;;;;;2.05;1.45;;;;;;;7.42;100.00;100982.06;6218881;23;20020;-91
2023/12/26 03:41:12;;;;;;;2.55;1.63;;;;;;;7.42;100.00;100991.44;6216576;23;20020;-87
2023/12/26 03:43:48;;;;;;;5.43;2.85;;;;;;;7.40;100.00;100969.88;6215703;23;20107;-87
2023/12/26 03:46:17;;;;;;;3.60;2.72;;;;;;;7.43;100.00;100973.50;6217586;23;20021;-89
2023/12/26 03:48:46;;;;;;;5.22;2.92;;;;;;;7.46;100.00;100981.34;6215778;23;20080;-88
2023/12/26 03:51:18;;;;;;;5.40;3.33;;;;;;;7.47;100.00;100979.69;6216718;23;20021;-87
2023/12/26 03:53:50;;;;;;;7.07;3.22;;;;;;;7.47;100.00;100961.66;6211126;23;20025;-88
2023/12/26 03:56:19;;;;;;;4.50;2.93;;;;;;;7.50;100.00;100948.91;6217678;23;20016;-88
2023/12/26 03:58:50;;;;;;;4.18;2.38;;;;;;;7.47;100.00;100943.63;6216217;23;20312;-87
2023/12/26 04:01:29;;;;;;;;;;;;;;;;;;;;;
2023/12/26 04:03:59;;;;;;;6.65;2.60;;;;;;;7.45;100.00;100946.13;6215445;23;20024;-87
2023/12/26 04:06:28;;;;;;;4.00;2.40;;;;;;;7.45;100.00;100943.56;6214356;23;20016;-87
2023/12/26 04:09:02;;;;;;;4.88;2.63;;;;;;;7.46;100.00;100949.59;6212530;23;20025;-87
2023/12/26 04:11:34;;;;;;;3.65;2.42;;;;;;;7.48;100.00;100960.84;6214251;23;20020;-88
2023/12/26 07:09:38;;;;;;;1.55;1.02;;;;;;;7.92;100.00;101259.09;6203709;23;20020;-89
2023/12/26 07:12:16;;;;;;;1.38;1.08;;;;;;;7.95;100.00;101253.25;6216092;23;20060;-90
2023/12/26 07:14:46;;;;;;;2.35;0.95;;;;;;;7.97;100.00;101238.69;6227696;23;20040;-89
2023/12/26 07:17:15;;;;;;;2.20;1.00;;;;;;;8.03;100.00;101222.66;6223891;23;20020;-89
2023/12/26 07:19:48;;;;;;;1.88;1.02;;;;;;;8.04;100.00;101225.31;6212830;23;20031;-87
2023/12/26 07:22:17;;;;;;;1.90;0.82;;;;;;;8.07;100.00;101240.06;6212320;23;20025;-88
2023/12/26 07:24:48;;;;;;;2.05;1.10;;;;;;;8.02;100.00;101237.25;6210807;23;20024;-87
2023/12/26 07:27:17;;;;;;;1.95;1.20;;;;;;;7.97;100.00;101236.13;6211153;23;20024;-86
2023/12/26 07:29:46;;;;;;;1.00;0.80;;;;;;;8.09;100.00;101241.00;6210963;23;20029;-87
2023/12/26 07:32:19;;;;;;;2.65;1.00;;;;;;;8.12;100.00;101241.16;6211082;23;20024;-87
2023/12/26 07:34:49;;;;;;;1.55;0.95;;;;;;;8.18;100.00;101255.22;6209575;23;20020;-87
2023/12/26 07:37:22;;;;;;;5.20;1.00;;;;;;;8.19;100.00;101243.19;6211956;23;20024;-87
2023/12/26 07:39:58;;;;;;;3.53;0.85;;;;;;;8.16;100.00;101223.31;6200880;23;20017;-88
2023/12/26 07:42:28;;;;;;;1.10;0.70;;;;;;;8.23;100.00;101244.22;6183681;23;20048;-86
2023/12/26 07:44:58;;;;;;;2.63;0.95;;;;;;;8.24;100.00;101235.66;6183524;23;20040;-86
2023/12/26 07:47:39;;;;;;;;;;;;;;;;;;;;;
2023/12/26 07:50:13;;;;;;;1.10;0.82;;;;;;;8.36;100.00;101257.75;6181271;23;20481;-88
2023/12/26 07:52:42;;;;;;;1.42;0.93;;;;;;;8.38;100.00;101247.50;6182544;23;20072;-87
2023/12/26 07:55:18;;;;;;;1.05;0.70;;;;;;;8.44;100.00;101263.31;6181613;23;20024;-88
2023/12/26 07:57:47;;;;;;;3.17;0.80;;;;;;;8.52;100.00;101268.81;6182560;23;20029;-87
2023/12/26 08:00:20;;;;;;;1.60;1.10;;;;;;;8.56;100.00;101274.16;6209818;23;20148;-88
2023/12/26 08:02:52;;;;;;;1.15;1.00;;;;;;;8.60;100.00;101278.66;6212999;23;20031;-89
2023/12/26 08:05:21;;;;;;;1.30;0.80;;;;;;;8.67;100.00;101284.09;6211731;23;20452;-89
2023/12/26 08:07:52;;;;;;;1.63;1.10;;;;;;;8.70;100.00;101268.75;6211967;23;20043;-88
2023/12/26 13:46:08;;;;;;;3.80;2.13;;;;;;;8.93;100.00;101531.38;6220349;23;20055;-86
2023/12/26 13:48:36;;;;;;;4.95;2.33;;;;;;;8.95;100.00;101540.03;6213757;23;20027;-86
2023/12/26 13:51:17;;;;;;;;;;;;;;;;;;;;;
2023/12/26 13:53:48;;;;;;;6.95;2.70;;;;;;;9.01;100.00;101530.03;6211906;23;20025;-87
2023/12/26 13:56:16;;;;;;;5.15;2.78;;;;;;;9.06;100.00;101527.66;6212133;23;20028;-86
2023/12/26 13:58:44;;;;;;;7.22;3.08;;;;;;;9.08;100.00;101520.00;6212176;23;20051;-87
2023/12/26 14:01:24;;;;;;;9.68;3.10;;;;;;;9.06;100.00;101507.00;6213447;23;20016;-87
2023/12/26 14:03:53;;;;;;;6.20;2.88;;;;;;;8.99;100.00;101497.22;6212249;23;20017;-86
2023/12/26 14:06:22;;;;;;;6.05;2.97;;;;;;;8.95;100.00;101488.44;6213028;23;20016;-87
2023/12/26 14:08:54;;;;;;;6.13;2.92;;;;;;;8.98;100.00;101493.75;6212550;23;20058;-86
2023/12/26 14:11:26;;;;;;;;;;;;;;;9.00;100.00;101491.22;6213836;23;20518;-87
2023/12/26 14:13:55;;;;;;;6.78;3.28;;;;;;;8.99;100.00;101489.47;6211955;23;20332;-87
2023/12/26 14:16:27;;;;;;;6.18;3.08;;;;;;;8.93;100.00;101474.59;6211540;23;20348;-87
2023/12/26 14:18:58;;;;;;;7.63;2.67;;;;;;;9.00;100.00;101483.47;6212624;23;20055;-87
2023/12/26 14:21:32;;;;;;;6.93;3.05;;;;;;;8.98;100.00;101469.66;6213945;23;20461;-86
2023/12/26 14:24:05;;;;;;;5.10;2.70;;;;;;;8.97;100.00;101465.28;6213128;23;20016;-86
2023/12/26 14:26:37;;;;;;;6.32;2.63;;;;;;;8.86;100.00;101451.84;6214186;23;20038;-86
2023/12/26 14:29:08;;;;;;;3.47;1.80;;;;;;;8.84;100.00;101462.91;6214348;23;20028;-85
2023/12/26 14:31:43;;;;;;;5.93;2.45;;;;;;;8.81;100.00;101464.53;6212752;23;20024;-87
2023/12/26 14:34:12;;;;;;;5.57;2.25;;;;;;;8.83;100.00;101463.75;6212632;23;20016;-86
2023/12/26 14:36:46;;;;;;;6.43;2.10;;;;;;;8.83;100.00;101469.78;6211538;23;20024;-86
2023/12/26 14:39:15;;;;;;;7.15;2.70;;;;;;;8.81;100.00;101471.41;6211986;23;20016;-86
2023/12/26 14:41:44;;;;;;;4.68;2.40;;;;;;;8.81;100.00;101474.84;6212487;23;20022;-88
2023/12/26 14:44:14;;;;;;;3.53;1.95;;;;;;;8.81;100.00;101468.81;6212604;23;20020;-87
2023/12/26 14:46:54;;;;;;;3.75;2.08;;;;;;;8.83;100.00;101461.16;6213057;23;20024;-88
2023/12/26 14:49:24;;;;;;;3.10;1.77;;;;;;;8.87;100.00;101471.72;6212728;23;20040;-87
2023/12/26 14:51:53;;;;;;;6.60;2.78;;;;;;;8.86;100.00;101469.03;6210363;23;20023;-87
2023/12/26 14:54:31;;;;;;;7.30;2.63;;;;;;;8.90;100.00;101479.59;6211620;23;20304;-88
2023/12/26 14:57:02;;;;;;;5.45;2.55;;;;;;;8.93;100.00;101482.34;6212932;23;20029;-87
2023/12/26 14:59:31;;;;;;;8.13;2.75;;;;;;;8.90;100.00;101483.88;6212167;23;20103;-88
2023/12/26 15:02:10;;;;;;;6.38;2.50;;;;;;;8.88;100.00;101488.94;6211440;23;20031;-87
2023/12/26 15:04:39;;;;;;;8.02;2.30;;;;;;;8.90;100.00;101487.31;6218864;23;20100;-86
2023/12/26 15:07:08;;;;;;;7.07;2.33;;;;;;;8.89;100.00;101483.00;6211611;23;20231;-86
2023/12/26 15:09:37;;;;;;;6.72;2.40;;;;;;;8.88;100.00;101481.19;6211568;23;20063;-85
2023/12/26 15:12:21;;;;;;;5.80;2.65;;;;;;;8.91;100.00;101478.78;6212376;23;20019;-85
2023/12/26 15:14:50;;;;;;;9.88;2.88;;;;;;;8.93;100.00;101477.16;6212031;23;20020;-87
2023/12/26 15:17:30;;;;;;;3.40;2.10;;;;;;;8.95;100.00;101472.94;6213333;23;20036;-87
2023/12/26 15:19:59;;;;;;;6.80;2.40;;;;;;;8.95;100.00;101467.78;6212300;23;20036;-89
2023/12/26 15:22:30;;;;;;;5.65;1.90;;;;;;;8.94;100.00;101462.56;6210355;23;20028;-87
2023/12/26 15:25:06;;;;;;;4.20;2.10;;;;;;;8.98;100.00;101467.94;6204143;23;20020;-86
2023/12/26 15:27:35;;;;;;;4.13;2.40;;;;;;;8.98;100.00;101473.09;6201217;23;20463;-87
2023/12/26 15:30:04;;;;;;;3.35;1.60;;;;;;;8.99;100.00;101479.16;6214028;23;20039;-88
2023/12/26 15:32:36;;;;;;;6.28;2.03;;;;;;;8.95;100.00;101472.94;6210606;23;20096;-86
2023/12/26 15:35:15;;;;;;;8.50;2.50;;;;;;;8.99;100.00;101484.31;6212724;23;20097;-89
2023/12/26 15:37:44;;;;;;;7.43;2.45;;;;;;;9.00;100.00;101480.91;6213135;23;20348;-87
2023/12/26 15:40:13;;;;;;;4.05;2.22;;;;;;;9.00;100.00;101486.97;6214973;23;20051;-88
2023/12/26 15:42:45;;;;;;;;;;;;;;;9.00;100.00;101489.56;6217991;23;20031;-88
2023/12/26 15:45:19;;;;;;;4.50;2.30;;;;;;;9.01;100.00;101490.44;6212644;23;19920;-89
2023/12/26 16:11:02;;;;;;;4.80;2.38;;;;;;;8.43;100.00;101480.75;6219814;23;20040;-88
2023/12/26 16:13:40;;;;;;;5.03;1.42;;;;;;;8.37;100.00;101477.81;6213320;23;20107;-86
2023/12/26 16:16:10;;;;;;;4.30;1.95;;;;;;;8.37;100.00;101493.28;6211799;23;20075;-87
2023/12/26 16:18:42;;;;;;;5.57;2.05;;;;;;;8.36;100.00;101494.09;6215639;23;20021;-86
2023/12/26 16:43:09;;;;;;;6.97;2.20;;;;;;;8.24;100.00;101520.13;6223704;23;20391;-85
2023/12/26 16:45:41;;;;;;;7.72;2.53;;;;;;;8.28;100.00;101534.97;6212527;23;20021;-86
2023/12/26 16:48:12;;;;;;;7.43;2.40;;;;;;;8.29;100.00;101535.84;6211144;23;20045;-86
2023/12/26 16:50:44;;;;;;;6.40;1.92;;;;;;;8.28;100.00;101527.22;6212323;23;20043;-87
2023/12/26 16:53:16;;;;;;;4.10;1.92;;;;;;;8.34;100.00;101531.84;6212023;23;20090;-86
2023/12/26 16:55:45;;;;;;;6.65;2.20;;;;;;;8.34;100.00;101527.56;6212390;23;20448;-87
2023/12/26 16:58:17;;;;;;;5.15;1.77;;;;;;;8.41;100.00;101536.53;6209748;23;20097;-85
2023/12/26 17:00:51;;;;;;;3.87;2.10;;;;;;;8.45;100.00;101527.22;6211185;23;20012;-85
2023/12/26 17:03:20;;;;;;;3.83;2.00;;;;;;;8.47;100.00;101523.91;6211512;23;20027;-85
2023/12/26 17:05:49;;;;;;;4.03;2.00;;;;;;;8.50;100.00;101513.78;6212170;23;20464;-89
2023/12/26 17:08:18;;;;;;;5.10;1.80;;;;;;;8.57;100.00;101513.25;6212697;23;20020;-86
2023/12/26 17:10:56;;;;;;;4.70;1.67;;;;;;;8.62;100.00;101497.13;6213443;23;20017;-87
2023/12/26 17:13:27;;;;;;;9.27;1.77;;;;;;;8.70;100.00;101493.22;6210830;23;20021;-86
2023/12/26 17:18:43;;;;;;;5.15;1.80;;;;;;;9.00;100.00;101492.13;6218237;23;20020;-84
2023/12/26 17:21:12;;;;;;;2.33;1.40;;;;;;;9.07;100.00;101482.06;6212392;23;20023;-87
2023/12/26 17:23:54;;;;;;;3.42;1.48;;;;;;;9.17;100.00;101484.28;6212228;23;20024;-85
2023/12/26 17:26:23;;;;;;;3.55;1.42;;;;;;;9.24;100.00;101486.34;6207480;23;20051;-85
2023/12/26 17:28:54;;;;;;;2.45;1.45;;;;;;;9.27;100.00;101481.31;6213241;23;20021;-89
2023/12/26 17:31:47;;;;;;;3.90;1.85;;;;;;;9.35;100.00;101494.59;6216330;23;20091;-86
2023/12/26 17:34:17;;;;;;;2.65;1.70;;;;;;;9.37;100.00;101495.56;6212268;23;20027;-88
2023/12/26 17:36:51;;;;;;;3.65;1.65;;;;;;;9.38;100.00;101498.19;6214725;23;20440;-84
2023/12/26 17:39:21;;;;;;;2.55;1.50;;;;;;;9.29;100.00;101505.50;6214221;23;20025;-84
2023/12/26 17:41:50;;;;;;;2.40;1.27;;;;;;;9.28;100.00;101501.19;6213479;23;20017;-85
2023/12/26 17:44:21;;;;;;;2.70;1.40;;;;;;;9.33;100.00;101502.25;6215335;23;20074;-86
2023/12/26 17:46:53;;;;;;;4.18;2.13;;;;;;;9.34;100.00;101503.16;6216324;23;20024;-85
2023/12/26 17:49:23;;;;;;;3.80;1.48;;;;;;;9.32;100.00;101495.34;6216153;23;20020;-87
2023/12/26 17:51:52;;;;;;;4.40;2.28;;;;;;;9.24;100.00;101494.09;6215208;23;20047;-86
2023/12/26 17:54:21;;;;;;;2.58;1.48;;;;;;;9.20;100.00;101490.47;6214583;23;20021;-87
2023/12/26 17:56:55;;;;;;;5.07;2.55;;;;;;;9.21;100.00;101487.09;6214434;23;20058;-87
2023/12/26 18:04:43;;;;;;;7.75;2.40;;;;;;;9.18;100.00;101491.22;6220950;23;20082;-87
2023/12/26 18:07:12;;;;;;;5.72;2.40;;;;;;;9.20;100.00;101479.25;6214877;23;20124;-84
2023/12/26 18:09:41;;;;;;;6.82;2.63;;;;;;;9.20;100.00;101480.13;6218956;23;20023;-87
2023/12/26 18:12:17;;;;;;;;;;;;;;;9.18;100.00;101475.72;6215369;23;20017;-84
2023/12/26 18:14:49;;;;;;;6.78;2.10;;;;;;;9.12;100.00;101467.72;6214208;23;19936;-88
2023/12/26 18:25:27;;;;;;;4.05;1.38;;;;;;;9.20;100.00;101456.03;6224262;23;20009;-85
2023/12/26 18:28:00;;;;;;;3.65;2.03;;;;;;;9.23;100.00;101451.91;6213990;23;20486;-88
2023/12/26 18:30:33;;;;;;;2.30;1.50;;;;;;;9.25;100.00;101436.44;6216562;23;20021;-85
2023/12/26 18:33:02;;;;;;;4.22;1.52;;;;;;;9.25;100.00;101436.44;6215385;23;20021;-86
2023/12/26 18:35:38;;;;;;;;;;;;;;;9.24;100.00;101429.53;6215206;23;20051;-85
2023/12/26 18:38:15;;;;;;;4.35;1.77;;;;;;;9.27;100.00;101429.66;6215454;23;19919;-88
2023/12/26 18:43:21;;;;;;;5.50;1.75;;;;;;;9.23;100.00;101417.41;6216147;23;20016;-84
2023/12/26 18:45:55;;;;;;;6.40;1.67;;;;;;;9.23;100.00;101409.66;6217196;23;20023;-84
2023/12/26 18:48:26;;;;;;;4.22;1.77;;;;;;;9.30;100.00;101403.09;6214302;23;20024;-84
2023/12/26 18:50:57;;;;;;;5.43;2.15;;;;;;;9.35;100.00;101404.22;6212810;23;20031;-87
2023/12/26 18:53:31;;;;;;;3.40;1.52;;;;;;;9.36;100.00;101393.91;6214578;23;20067;-87
2023/12/26 19:03:46;;;;;;;4.45;1.48;;;;;;;9.19;100.00;101379.38;6217333;23;20016;-85
2023/12/26 19:06:15;;;;;;;5.25;1.27;;;;;;;9.18;100.00;101380.19;6214862;23;20145;-85
2023/12/26 19:08:45;;;;;;;6.53;1.35;;;;;;;9.22;100.00;101376.94;6213869;23;20024;-86
2023/12/26 19:11:21;;;;;;;5.05;1.30;;;;;;;9.25;100.00;101361.56;6215446;23;20096;-86
2023/12/26 19:13:51;;;;;;;3.65;1.08;;;;;;;9.31;100.00;101367.00;6215123;23;20021;-84
2023/12/26 19:16:21;;;;;;;5.10;1.95;;;;;;;9.37;100.00;101354.38;6214270;23;20075;-85
2023/12/26 19:18:58;;;;;;;2.67;1.77;;;;;;;9.40;100.00;101354.50;6214306;23;20017;-84
2023/12/26 19:21:27;;;;;;;7.40;1.65;;;;;;;9.41;100.00;101348.53;6215155;23;20091;-86
2023/12/26 19:23:56;;;;;;;4.00;1.40;;;;;;;9.42;100.00;101332.22;6214793;23;20095;-85
2023/12/26 19:26:25;;;;;;;3.08;1.23;;;;;;;9.38;100.00;101330.31;6214800;23;20546;-88
2023/12/26 19:28:55;;;;;;;3.80;1.23;;;;;;;9.31;100.00;101312.78;6213305;23;20032;-84
2023/12/26 19:31:24;;;;;;;1.50;1.10;;;;;;;9.27;100.00;101308.28;6212101;23;20020;-84
2023/12/26 19:33:56;;;;;;;3.47;1.10;;;;;;;9.31;100.00;101302.44;6212158;23;20112;-85
2023/12/26 19:36:24;;;;;;;1.73;0.88;;;;;;;9.21;100.00;101296.00;6212997;23;20028;-85
2023/12/26 19:38:54;;;;;;;9.82;1.85;;;;;;;9.12;100.00;101289.56;6211866;23;20017;-85
2023/12/26 19:41:25;;;;;;;3.85;1.40;;;;;;;9.00;100.00;101285.63;6212129;23;20016;-85
2023/12/26 19:43:54;;;;;;;3.60;1.10;;;;;;;8.99;100.00;101281.28;6209849;23;20145;-85
2023/12/26 19:46:23;;;;;;;2.78;1.08;;;;;;;8.97;100.00;101277.72;6208492;23;20016;-86
2023/12/26 19:48:53;;;;;;;1.85;1.05;;;;;;;8.90;100.00;101270.53;6211160;23;20071;-87
2023/12/26 19:51:30;;;;;;;2.22;1.17;;;;;;;8.84;100.00;101269.38;6210440;23;20055;-84
2023/12/26 19:53:59;;;;;;;1.52;0.82;;;;;;;8.83;100.00;101260.75;6210856;23;20016;-82
2023/12/26 19:56:29;;;;;;;10.52;1.42;;;;;;;8.87;100.00;101260.09;6211859;23;20021;-83
2023/12/26 19:58:58;;;;;;;2.17;1.48;;;;;;;8.91;100.00;101249.09;6214669;23;20024;-83
2023/12/26 20:01:34;;;;;;;3.60;1.00;;;;;;;8.94;100.00;101238.03;6212633;23;20027;-83
2023/12/26 20:04:03;;;;;;;2.28;1.15;;;;;;;8.98;100.00;101234.75;6211505;23;20036;-83
2023/12/26 20:06:34;;;;;;;1.45;0.70;;;;;;;9.05;100.00;101221.31;6213333;23;20078;-83
2023/12/26 20:09:08;;;;;;;4.50;0.98;;;;;;;9.09;100.00;101210.25;6212461;23;20099;-83
2023/12/26 20:11:43;;;;;;;1.75;1.05;;;;;;;9.24;100.00;101215.22;6213332;23;20012;-83
2023/12/26 20:14:13;;;;;;;2.17;0.95;;;;;;;9.32;100.00;101215.53;6212641;23;20020;-84
2023/12/26 20:16:46;;;;;;;1.77;0.77;;;;;;;9.39;100.00;101207.22;6210720;23;20478;-84
2023/12/26 20:19:15;;;;;;;2.78;0.90;;;;;;;9.50;100.00;101207.66;6210526;23;20049;-84
2023/12/26 20:21:47;;;;;;;2.45;0.50;;;;;;;9.57;100.00;101201.91;6211272;23;20526;-84
2023/12/26 20:24:16;;;;;;;1.20;0.60;;;;;;;9.61;100.00;101189.19;6213558;23;20021;-84
2023/12/26 20:26:48;;;;;;;4.70;1.40;;;;;;;9.67;100.00;101186.00;6210185;23;20027;-84
2023/12/26 20:29:18;;;;;;;2.50;0.68;;;;;;;9.70;100.00;101178.34;6212614;23;20078;-84
2023/12/26 20:31:50;;;;;;;2.38;1.30;;;;;;;9.73;100.00;101172.41;6209921;23;20019;-82
2023/12/26 20:34:20;;;;;;;1.47;0.87;;;;;;;9.78;100.00;101170.88;6213212;23;20445;-83
2023/12/26 20:36:54;;;;;;;1.10;0.80;;;;;;;9.76;100.00;101165.69;6213410;23;20329;-84
2023/12/26 20:39:23;;;;;;;1.63;0.70;;;;;;;9.81;100.00;101155.53;6211910;23;20028;-84
2023/12/26 20:41:54;;;;;;;1.23;0.90;;;;;;;9.76;100.00;101152.75;6212514;23;20036;-84
2023/12/26 20:44:23;;;;;;;2.30;0.70;;;;;;;9.74;100.00;101145.78;6211392;23;20020;-84
2023/12/26 20:46:53;;;;;;;3.67;1.10;;;;;;;9.73;100.00;101150.03;6210152;23;20370;-84
2023/12/26 20:49:22;;;;;;;2.45;0.85;;;;;;;9.78;100.00;101145.03;6210123;23;20429;-85
2023/12/26 20:51:53;;;;;;;3.97;2.05;;;;;;;9.83;100.00;101143.53;6211705;23;20421;-84
2023/12/26 20:54:22;;;;;;;1.73;0.85;;;;;;;9.85;100.00;101137.59;6209764;23;20095;-87
2023/12/26 20:56:55;;;;;;;0.70;0.52;;;;;;;9.86;100.00;101129.00;6210792;23;20051;-85
2023/12/26 20:59:24;;;;;;;4.05;0.77;;;;;;;9.92;100.00;101132.66;6210473;23;20079;-84
2023/12/26 21:01:53;;;;;;;3.20;0.77;;;;;;;9.95;100.00;101125.03;6211790;23;20040;-88
2023/12/26 21:04:22;;;;;;;2.80;0.70;;;;;;;9.99;100.00;101114.00;6211035;23;20092;-86
2023/12/26 21:07:04;;;;;;;;;;;;;;;;;;;;;
2023/12/26 21:09:34;;;;;;;2.05;0.82;;;;;;;10.05;100.00;101109.03;6211027;23;20551;-86
2023/12/26 21:12:03;;;;;;;1.25;0.70;;;;;;;10.12;100.00;101099.78;6217459;23;20507;-85
2023/12/26 21:14:33;;;;;;;3.63;0.70;;;;;;;10.18;100.00;101087.09;6213760;23;20025;-84
2023/12/26 21:17:06;;;;;;;2.28;0.60;;;;;;;10.22;100.00;101091.56;6213789;23;20023;-84
2023/12/26 21:19:36;;;;;;;0.90;0.60;;;;;;;10.23;100.00;101096.78;6212114;23;20103;-83
2023/12/26 21:22:08;;;;;;;2.42;0.80;;;;;;;10.26;100.00;101083.97;6213687;23;20029;-84
2023/12/26 21:24:47;;;;;;;3.40;0.57;;;;;;;10.27;100.00;101075.38;6213911;23;20021;-82
2023/12/26 21:27:16;;;;;;;1.02;0.65;;;;;;;10.30;100.00;101073.75;6214357;23;20074;-83
2023/12/26 21:29:46;;;;;;;0.63;0.50;;;;;;;10.26;100.00;101047.75;6212723;23;20463;-85
2023/12/26 21:32:27;;;;;;;2.05;0.70;;;;;;;10.27;100.00;101051.22;6213447;23;20100;-86
2023/12/26 21:34:58;;;;;;;1.15;0.70;;;;;;;10.32;100.00;101041.94;6214224;23;20067;-86
2023/12/26 21:37:29;;;;;;;0.85;0.63;;;;;;;10.38;100.00;101036.13;6210676;23;20047;-87
2023/12/26 21:40:08;;;;;;;1.85;0.60;;;;;;;10.39;100.00;101023.22;6210994;23;20104;-87
2023/12/26 21:42:38;;;;;;;1.58;0.70;;;;;;;10.43;100.00;101019.06;6212675;23;20017;-88
2023/12/26 21:45:09;;;;;;;0.88;0.47;;;;;;;10.42;100.00;101001.75;6213788;23;20318;-88
2023/12/26 21:47:46;;;;;;;1.35;0.60;;;;;;;10.42;100.00;100989.72;6217246;23;20052;-85
2023/12/26 21:50:21;;;;;;;2.60;0.63;;;;;;;10.47;100.00;100995.06;6214193;23;20051;-85
2023/12/26 21:52:55;;;;;;;1.83;0.75;;;;;;;10.47;100.00;100985.56;6212065;23;20017;-86
2023/12/26 21:55:26;;;;;;;4.05;0.80;;;;;;;10.42;100.00;100974.19;6212889;23;20020;-85
2023/12/26 22:14:34;;;;;;;1.05;0.65;;;;;;;10.36;100.00;100965.34;6219231;23;20487;-87
2023/12/26 22:17:04;;;;;;;0.85;0.73;;;;;;;10.31;100.00;100961.72;6213267;23;20456;-87
2023/12/26 22:19:47;;;;;;;0.77;0.45;;;;;;;10.24;100.00;100956.31;6213350;23;20111;-86
2023/12/26 22:22:16;;;;;;;1.10;0.70;;;;;;;10.22;100.00;100965.72;6213084;23;20017;-89
2023/12/26 22:24:46;;;;;;;1.40;0.80;;;;;;;10.19;100.00;100970.81;6217464;23;20051;-87
2023/12/26 22:27:21;;;;;;;2.20;0.90;;;;;;;10.12;100.00;100966.22;6213651;23;20041;-87
2023/12/26 22:29:53;;;;;;;0.45;0.45;;;;;;;10.05;100.00;100959.94;6213637;23;20074;-87
2023/12/26 22:32:22;;;;;;;1.45;0.70;;;;;;;10.03;100.00;100969.38;6213177;23;20016;-87
2023/12/26 22:34:54;;;;;;;1.30;0.70;;;;;;;10.04;100.00;100963.38;6213510;23;20108;-86
2023/12/26 22:37:26;;;;;;;0.98;0.45;;;;;;;9.97;100.00;100945.91;6214138;23;20464;-88
2023/12/26 22:39:55;;;;;;;0.55;0.50;;;;;;;9.98;100.00;100951.94;6213715;23;20047;-90
2023/12/26 22:42:24;;;;;;;1.33;0.50;;;;;;;9.92;100.00;100936.22;6213533;23;20024;-90
2023/12/26 22:44:54;;;;;;;0.70;0.50;;;;;;;9.91;100.00;100935.34;6213933;23;20020;-87
2023/12/26 22:47:28;;;;;;;0.85;0.80;;;;;;;9.88;100.00;100924.91;6212394;23;20464;-91
2023/12/26 22:49:57;;;;;;;0.90;0.60;;;;;;;9.80;100.00;100916.88;6213358;23;20055;-86
2023/12/26 22:52:28;;;;;;;2.08;0.77;;;;;;;9.79;100.00;100916.81;6212440;23;20016;-89
2023/12/26 22:55:00;;;;;;;1.55;0.68;;;;;;;9.80;100.00;100911.72;6210839;23;20456;-87
2023/12/26 23:00:18;;;;;;;1.15;0.70;;;;;;;9.77;100.00;100902.97;6211727;23;20024;-87
2023/12/26 23:02:49;;;;;;;2.70;0.65;;;;;;;9.81;100.00;100907.44;6215183;23;20021;-89
2023/12/26 23:05:22;;;;;;;1.33;0.82;;;;;;;9.79;100.00;100901.31;6212110;23;20460;-89
2023/12/26 23:07:52;;;;;;;2.53;1.00;;;;;;;9.77;100.00;100901.25;6213839;23;20021;-89
2023/12/26 23:10:31;;;;;;;0.88;0.68;;;;;;;9.80;100.00;100906.56;6211577;23;20017;-87
2023/12/26 23:13:03;;;;;;;2.67;0.73;;;;;;;9.76;100.00;100894.34;6212326;23;20017;-84
2023/12/26 23:15:36;;;;;;;1.40;0.65;;;;;;;9.79;100.00;100899.59;6211699;23;20116;-85
2023/12/26 23:18:08;;;;;;;1.23;0.80;;;;;;;9.73;100.00;100888.19;6214076;23;20402;-86
2023/12/26 23:20:38;;;;;;;1.90;0.47;;;;;;;9.72;100.00;100902.81;6212448;23;20017;-84
2023/12/26 23:23:07;;;;;;;1.55;0.80;;;;;;;9.67;100.00;100914.69;6211457;23;20090;-84